sensor_id;sensor_type;location;lat;lon;timestamp;P1;durP1;ratioP1;P2;durP2;ratioP2
80249;SDS011;69561;37.974;23.708;2023-07-20T00:01:13;9.30;;;4.05;;
80249;SDS011;69561;37.974;23.708;2023-07-20T00:03:39;6.60;;;3.88;;
80249;SDS011;69561;37.974;23.708;2023-07-20T00:06:04;12.93;;;4.35;;
80249;SDS011;69561;37.974;23.708;2023-07-20T00:08:30;5.65;;;4.18;;
80249;SDS011;69561;37.974;23.708;2023-07-20T00:10:56;7.25;;;4.10;;
80249;SDS011;69561;37.974;23.708;2023-07-20T00:13:22;6.70;;;4.00;;
80249;SDS011;69561;37.974;23.708;2023-07-20T00:15:48;7.57;;;4.03;;
80249;SDS011;69561;37.974;23.708;2023-07-20T00:18:13;9.93;;;4.45;;
80249;SDS011;69561;37.974;23.708;2023-07-20T00:20:39;7.78;;;4.07;;
80249;SDS011;69561;37.974;23.708;2023-07-20T00:23:05;9.93;;;4.50;;
80249;SDS011;69561;37.974;23.708;2023-07-20T00:25:31;8.82;;;4.55;;
80249;SDS011;69561;37.974;23.708;2023-07-20T00:27:58;8.60;;;4.40;;
80249;SDS011;69561;37.974;23.708;2023-07-20T00:30:24;6.57;;;4.40;;
80249;SDS011;69561;37.974;23.708;2023-07-20T00:32:49;8.85;;;4.30;;
80249;SDS011;69561;37.974;23.708;2023-07-20T00:35:15;11.18;;;4.30;;
80249;SDS011;69561;37.974;23.708;2023-07-20T00:37:41;6.47;;;4.13;;
80249;SDS011;69561;37.974;23.708;2023-07-20T00:40:07;7.72;;;4.78;;
80249;SDS011;69561;37.974;23.708;2023-07-20T00:42:33;12.43;;;4.43;;
80249;SDS011;69561;37.974;23.708;2023-07-20T00:44:59;11.25;;;5.00;;
80249;SDS011;69561;37.974;23.708;2023-07-20T00:47:26;9.43;;;4.70;;
80249;SDS011;69561;37.974;23.708;2023-07-20T00:49:52;11.32;;;5.15;;
80249;SDS011;69561;37.974;23.708;2023-07-20T00:52:19;14.32;;;5.20;;
80249;SDS011;69561;37.974;23.708;2023-07-20T00:54:47;8.07;;;5.07;;
80249;SDS011;69561;37.974;23.708;2023-07-20T00:57:14;10.65;;;5.90;;
80249;SDS011;69561;37.974;23.708;2023-07-20T00:59:40;12.48;;;5.63;;
80249;SDS011;69561;37.974;23.708;2023-07-20T01:02:06;7.72;;;5.55;;
80249;SDS011;69561;37.974;23.708;2023-07-20T01:04:32;17.35;;;6.53;;
80249;SDS011;69561;37.974;23.708;2023-07-20T01:07:19;8.85;;;6.00;;
80249;SDS011;69561;37.974;23.708;2023-07-20T01:12:44;14.25;;;7.07;;
80249;SDS011;69561;37.974;23.708;2023-07-20T01:15:12;14.13;;;6.90;;
80249;SDS011;69561;37.974;23.708;2023-07-20T01:17:41;17.60;;;8.13;;
80249;SDS011;69561;37.974;23.708;2023-07-20T01:20:06;12.88;;;8.75;;
80249;SDS011;69561;37.974;23.708;2023-07-20T01:33:34;15.07;;;9.63;;
80249;SDS011;69561;37.974;23.708;2023-07-20T01:36:01;16.38;;;9.55;;
80249;SDS011;69561;37.974;23.708;2023-07-20T01:38:27;14.90;;;9.90;;
80249;SDS011;69561;37.974;23.708;2023-07-20T01:40:54;17.75;;;9.93;;
80249;SDS011;69561;37.974;23.708;2023-07-20T01:43:20;18.00;;;10.27;;
80249;SDS011;69561;37.974;23.708;2023-07-20T01:45:47;18.00;;;9.73;;
80249;SDS011;69561;37.974;23.708;2023-07-20T01:48:13;19.15;;;10.60;;
80249;SDS011;69561;37.974;23.708;2023-07-20T01:50:38;16.48;;;10.25;;
80249;SDS011;69561;37.974;23.708;2023-07-20T01:53:04;17.20;;;10.32;;
80249;SDS011;69561;37.974;23.708;2023-07-20T01:55:30;22.00;;;11.27;;
80249;SDS011;69561;37.974;23.708;2023-07-20T01:57:55;18.52;;;11.07;;
80249;SDS011;69561;37.974;23.708;2023-07-20T02:00:21;15.35;;;9.95;;
80249;SDS011;69561;37.974;23.708;2023-07-20T02:02:49;17.20;;;10.60;;
80249;SDS011;69561;37.974;23.708;2023-07-20T02:05:15;16.02;;;11.05;;
80249;SDS011;69561;37.974;23.708;2023-07-20T02:07:41;16.38;;;10.30;;
80249;SDS011;69561;37.974;23.708;2023-07-20T02:10:07;17.38;;;11.93;;
80249;SDS011;69561;37.974;23.708;2023-07-20T02:12:33;22.77;;;12.50;;
80249;SDS011;69561;37.974;23.708;2023-07-20T02:14:59;20.17;;;12.32;;
80249;SDS011;69561;37.974;23.708;2023-07-20T02:17:25;27.30;;;12.30;;
80249;SDS011;69561;37.974;23.708;2023-07-20T02:19:59;20.98;;;11.77;;
80249;SDS011;69561;37.974;23.708;2023-07-20T02:22:25;18.23;;;12.18;;
80249;SDS011;69561;37.974;23.708;2023-07-20T02:24:51;24.90;;;12.88;;
80249;SDS011;69561;37.974;23.708;2023-07-20T02:27:16;25.45;;;12.35;;
80249;SDS011;69561;37.974;23.708;2023-07-20T02:29:42;24.55;;;13.40;;
80249;SDS011;69561;37.974;23.708;2023-07-20T02:32:08;24.75;;;12.55;;
80249;SDS011;69561;37.974;23.708;2023-07-20T02:34:37;20.63;;;12.50;;
80249;SDS011;69561;37.974;23.708;2023-07-20T02:37:06;22.50;;;12.27;;
80249;SDS011;69561;37.974;23.708;2023-07-20T02:39:31;21.67;;;12.82;;
80249;SDS011;69561;37.974;23.708;2023-07-20T02:41:57;22.00;;;12.13;;
80249;SDS011;69561;37.974;23.708;2023-07-20T02:44:22;28.58;;;14.00;;
80249;SDS011;69561;37.974;23.708;2023-07-20T02:46:48;24.00;;;13.23;;
80249;SDS011;69561;37.974;23.708;2023-07-20T02:49:14;21.13;;;13.23;;
80249;SDS011;69561;37.974;23.708;2023-07-20T02:51:41;31.15;;;14.18;;
80249;SDS011;69561;37.974;23.708;2023-07-20T02:54:07;25.20;;;13.35;;
80249;SDS011;69561;37.974;23.708;2023-07-20T02:56:33;22.95;;;13.38;;
80249;SDS011;69561;37.974;23.708;2023-07-20T02:58:59;22.27;;;13.85;;
80249;SDS011;69561;37.974;23.708;2023-07-20T03:01:25;22.85;;;13.60;;
80249;SDS011;69561;37.974;23.708;2023-07-20T03:03:54;19.23;;;12.90;;
80249;SDS011;69561;37.974;23.708;2023-07-20T03:06:20;20.60;;;13.40;;
80249;SDS011;69561;37.974;23.708;2023-07-20T03:08:46;24.50;;;13.82;;
80249;SDS011;69561;37.974;23.708;2023-07-20T03:11:17;22.42;;;13.80;;
80249;SDS011;69561;37.974;23.708;2023-07-20T03:13:46;23.10;;;14.00;;
80249;SDS011;69561;37.974;23.708;2023-07-20T03:16:13;27.65;;;14.85;;
80249;SDS011;69561;37.974;23.708;2023-07-20T03:18:44;27.58;;;14.40;;
80249;SDS011;69561;37.974;23.708;2023-07-20T03:21:10;28.75;;;14.73;;
80249;SDS011;69561;37.974;23.708;2023-07-20T03:23:36;28.52;;;14.70;;
80249;SDS011;69561;37.974;23.708;2023-07-20T03:26:03;27.65;;;14.90;;
80249;SDS011;69561;37.974;23.708;2023-07-20T03:28:29;26.17;;;14.65;;
80249;SDS011;69561;37.974;23.708;2023-07-20T03:30:58;28.60;;;15.30;;
80249;SDS011;69561;37.974;23.708;2023-07-20T03:33:27;25.25;;;15.18;;
80249;SDS011;69561;37.974;23.708;2023-07-20T03:35:54;30.98;;;15.70;;
80249;SDS011;69561;37.974;23.708;2023-07-20T03:38:25;29.05;;;16.42;;
80249;SDS011;69561;37.974;23.708;2023-07-20T03:40:53;28.92;;;15.18;;
80249;SDS011;69561;37.974;23.708;2023-07-20T03:43:19;25.98;;;15.85;;
80249;SDS011;69561;37.974;23.708;2023-07-20T03:45:46;38.03;;;17.75;;
80249;SDS011;69561;37.974;23.708;2023-07-20T03:48:15;23.02;;;14.00;;
80249;SDS011;69561;37.974;23.708;2023-07-20T03:50:42;15.13;;;9.30;;
80249;SDS011;69561;37.974;23.708;2023-07-20T03:53:09;18.23;;;10.05;;
80249;SDS011;69561;37.974;23.708;2023-07-20T03:55:34;26.15;;;10.63;;
80249;SDS011;69561;37.974;23.708;2023-07-20T03:58:03;18.67;;;11.38;;
80249;SDS011;69561;37.974;23.708;2023-07-20T04:00:29;21.65;;;13.05;;
80249;SDS011;69561;37.974;23.708;2023-07-20T04:02:54;20.92;;;11.80;;
80249;SDS011;69561;37.974;23.708;2023-07-20T04:05:27;24.65;;;13.27;;
80249;SDS011;69561;37.974;23.708;2023-07-20T04:07:53;24.20;;;13.10;;
80249;SDS011;69561;37.974;23.708;2023-07-20T04:10:21;25.30;;;13.70;;
80249;SDS011;69561;37.974;23.708;2023-07-20T04:12:50;22.05;;;12.73;;
80249;SDS011;69561;37.974;23.708;2023-07-20T04:15:15;18.95;;;13.38;;
80249;SDS011;69561;37.974;23.708;2023-07-20T04:17:41;22.75;;;12.60;;
80249;SDS011;69561;37.974;23.708;2023-07-20T04:20:07;19.30;;;12.00;;
80249;SDS011;69561;37.974;23.708;2023-07-20T04:22:33;23.98;;;12.98;;
80249;SDS011;69561;37.974;23.708;2023-07-20T04:24:59;26.52;;;13.13;;
80249;SDS011;69561;37.974;23.708;2023-07-20T04:27:25;24.42;;;12.43;;
80249;SDS011;69561;37.974;23.708;2023-07-20T04:29:51;23.27;;;12.73;;
80249;SDS011;69561;37.974;23.708;2023-07-20T04:32:17;44.90;;;13.43;;
80249;SDS011;69561;37.974;23.708;2023-07-20T04:34:43;42.67;;;13.05;;
80249;SDS011;69561;37.974;23.708;2023-07-20T04:37:09;25.75;;;12.85;;
80249;SDS011;69561;37.974;23.708;2023-07-20T04:39:34;29.48;;;11.88;;
80249;SDS011;69561;37.974;23.708;2023-07-20T04:42:00;25.63;;;12.05;;
80249;SDS011;69561;37.974;23.708;2023-07-20T04:44:26;27.27;;;12.07;;
80249;SDS011;69561;37.974;23.708;2023-07-20T04:46:51;28.45;;;10.77;;
80249;SDS011;69561;37.974;23.708;2023-07-20T04:49:17;18.58;;;10.70;;
80249;SDS011;69561;37.974;23.708;2023-07-20T04:51:43;21.48;;;9.95;;
80249;SDS011;69561;37.974;23.708;2023-07-20T04:54:08;20.90;;;9.75;;
80249;SDS011;69561;37.974;23.708;2023-07-20T04:56:34;21.98;;;9.10;;
80249;SDS011;69561;37.974;23.708;2023-07-20T04:59:00;22.58;;;9.35;;
80249;SDS011;69561;37.974;23.708;2023-07-20T05:01:25;19.98;;;8.80;;
80249;SDS011;69561;37.974;23.708;2023-07-20T05:03:54;18.92;;;8.95;;
80249;SDS011;69561;37.974;23.708;2023-07-20T05:06:19;16.42;;;8.23;;
80249;SDS011;69561;37.974;23.708;2023-07-20T05:08:47;19.70;;;7.68;;
80249;SDS011;69561;37.974;23.708;2023-07-20T05:11:13;16.25;;;7.45;;
80249;SDS011;69561;37.974;23.708;2023-07-20T05:13:39;13.63;;;6.75;;
80249;SDS011;69561;37.974;23.708;2023-07-20T05:16:05;14.35;;;6.60;;
80249;SDS011;69561;37.974;23.708;2023-07-20T05:18:31;14.05;;;6.10;;
80249;SDS011;69561;37.974;23.708;2023-07-20T05:20:57;11.75;;;5.03;;
80249;SDS011;69561;37.974;23.708;2023-07-20T05:23:22;9.68;;;4.82;;
80249;SDS011;69561;37.974;23.708;2023-07-20T05:25:55;14.40;;;4.53;;
80249;SDS011;69561;37.974;23.708;2023-07-20T05:28:22;10.18;;;3.90;;
80249;SDS011;69561;37.974;23.708;2023-07-20T05:30:48;14.18;;;4.30;;
80249;SDS011;69561;37.974;23.708;2023-07-20T05:33:16;6.30;;;3.30;;
80249;SDS011;69561;37.974;23.708;2023-07-20T05:35:42;6.25;;;3.33;;
80249;SDS011;69561;37.974;23.708;2023-07-20T05:38:08;5.65;;;2.90;;
80249;SDS011;69561;37.974;23.708;2023-07-20T05:40:37;6.80;;;3.28;;
80249;SDS011;69561;37.974;23.708;2023-07-20T05:45:30;4.60;;;2.88;;
80249;SDS011;69561;37.974;23.708;2023-07-20T05:47:56;4.28;;;2.70;;
80249;SDS011;69561;37.974;23.708;2023-07-20T05:50:24;3.65;;;2.83;;
80249;SDS011;69561;37.974;23.708;2023-07-20T05:52:53;5.78;;;2.72;;
80249;SDS011;69561;37.974;23.708;2023-07-20T05:55:19;6.63;;;3.05;;
80249;SDS011;69561;37.974;23.708;2023-07-20T05:57:45;6.30;;;2.70;;
80249;SDS011;69561;37.974;23.708;2023-07-20T06:00:12;3.65;;;2.90;;
80249;SDS011;69561;37.974;23.708;2023-07-20T06:02:39;5.30;;;2.83;;
80249;SDS011;69561;37.974;23.708;2023-07-20T06:05:07;3.65;;;2.80;;
80249;SDS011;69561;37.974;23.708;2023-07-20T06:07:37;7.10;;;2.83;;
80249;SDS011;69561;37.974;23.708;2023-07-20T06:10:03;3.80;;;2.78;;
80249;SDS011;69561;37.974;23.708;2023-07-20T06:12:30;5.40;;;3.00;;
80249;SDS011;69561;37.974;23.708;2023-07-20T06:14:57;3.60;;;2.65;;
80249;SDS011;69561;37.974;23.708;2023-07-20T06:17:26;6.03;;;2.55;;
80249;SDS011;69561;37.974;23.708;2023-07-20T06:19:52;4.90;;;2.47;;
80249;SDS011;69561;37.974;23.708;2023-07-20T06:22:17;5.85;;;2.53;;
80249;SDS011;69561;37.974;23.708;2023-07-20T06:24:43;7.93;;;2.70;;
80249;SDS011;69561;37.974;23.708;2023-07-20T06:27:11;6.95;;;2.78;;
80249;SDS011;69561;37.974;23.708;2023-07-20T06:29:37;8.73;;;2.83;;
80249;SDS011;69561;37.974;23.708;2023-07-20T06:32:03;5.07;;;2.35;;
80249;SDS011;69561;37.974;23.708;2023-07-20T06:34:30;6.03;;;2.80;;
80249;SDS011;69561;37.974;23.708;2023-07-20T06:36:56;9.63;;;2.40;;
80249;SDS011;69561;37.974;23.708;2023-07-20T06:39:21;5.30;;;2.45;;
80249;SDS011;69561;37.974;23.708;2023-07-20T06:41:47;6.15;;;2.80;;
80249;SDS011;69561;37.974;23.708;2023-07-20T06:44:13;4.70;;;2.40;;
80249;SDS011;69561;37.974;23.708;2023-07-20T06:46:39;4.10;;;2.60;;
80249;SDS011;69561;37.974;23.708;2023-07-20T06:49:07;3.25;;;2.40;;
80249;SDS011;69561;37.974;23.708;2023-07-20T06:51:33;2.67;;;2.22;;
80249;SDS011;69561;37.974;23.708;2023-07-20T06:53:59;2.75;;;2.20;;
80249;SDS011;69561;37.974;23.708;2023-07-20T06:56:24;6.10;;;2.30;;
80249;SDS011;69561;37.974;23.708;2023-07-20T06:58:50;5.38;;;2.38;;
80249;SDS011;69561;37.974;23.708;2023-07-20T07:01:21;3.72;;;2.20;;
80249;SDS011;69561;37.974;23.708;2023-07-20T07:03:47;2.60;;;2.20;;
80249;SDS011;69561;37.974;23.708;2023-07-20T07:06:12;2.92;;;2.13;;
80249;SDS011;69561;37.974;23.708;2023-07-20T07:08:38;3.92;;;2.10;;
80249;SDS011;69561;37.974;23.708;2023-07-20T07:11:04;2.70;;;2.20;;
80249;SDS011;69561;37.974;23.708;2023-07-20T07:13:30;2.22;;;2.00;;
80249;SDS011;69561;37.974;23.708;2023-07-20T07:15:56;5.43;;;2.30;;
80249;SDS011;69561;37.974;23.708;2023-07-20T07:18:22;2.28;;;1.95;;
80249;SDS011;69561;37.974;23.708;2023-07-20T07:20:50;2.78;;;1.95;;
80249;SDS011;69561;37.974;23.708;2023-07-20T07:23:17;2.70;;;2.20;;
80249;SDS011;69561;37.974;23.708;2023-07-20T07:25:43;5.38;;;2.08;;
80249;SDS011;69561;37.974;23.708;2023-07-20T07:28:09;2.72;;;2.22;;
80249;SDS011;69561;37.974;23.708;2023-07-20T07:30:34;7.00;;;2.20;;
80249;SDS011;69561;37.974;23.708;2023-07-20T07:33:00;3.45;;;2.40;;
80249;SDS011;69561;37.974;23.708;2023-07-20T07:35:26;2.85;;;2.38;;
80249;SDS011;69561;37.974;23.708;2023-07-20T07:37:51;3.00;;;2.58;;
80249;SDS011;69561;37.974;23.708;2023-07-20T07:40:17;4.90;;;2.72;;
80249;SDS011;69561;37.974;23.708;2023-07-20T07:42:43;3.80;;;2.58;;
80249;SDS011;69561;37.974;23.708;2023-07-20T07:45:09;6.75;;;3.10;;
80249;SDS011;69561;37.974;23.708;2023-07-20T07:47:35;6.65;;;3.10;;
80249;SDS011;69561;37.974;23.708;2023-07-20T07:50:01;4.53;;;3.00;;
80249;SDS011;69561;37.974;23.708;2023-07-20T07:52:27;6.68;;;2.80;;
80249;SDS011;69561;37.974;23.708;2023-07-20T07:54:52;5.53;;;3.17;;
80249;SDS011;69561;37.974;23.708;2023-07-20T07:57:18;4.13;;;3.28;;
80249;SDS011;69561;37.974;23.708;2023-07-20T07:59:46;3.70;;;2.80;;
80249;SDS011;69561;37.974;23.708;2023-07-20T08:02:12;4.15;;;2.80;;
80249;SDS011;69561;37.974;23.708;2023-07-20T08:04:38;3.55;;;3.20;;
80249;SDS011;69561;37.974;23.708;2023-07-20T08:07:04;5.40;;;2.80;;
80249;SDS011;69561;37.974;23.708;2023-07-20T08:09:37;5.18;;;2.90;;
80249;SDS011;69561;37.974;23.708;2023-07-20T08:12:03;7.50;;;2.83;;
80249;SDS011;69561;37.974;23.708;2023-07-20T08:14:29;9.40;;;2.90;;
80249;SDS011;69561;37.974;23.708;2023-07-20T08:16:55;4.78;;;2.85;;
80249;SDS011;69561;37.974;23.708;2023-07-20T08:19:21;2.58;;;2.38;;
80249;SDS011;69561;37.974;23.708;2023-07-20T08:21:46;3.50;;;2.80;;
80249;SDS011;69561;37.974;23.708;2023-07-20T08:24:12;6.55;;;3.03;;
80249;SDS011;69561;37.974;23.708;2023-07-20T08:26:38;2.55;;;2.35;;
80249;SDS011;69561;37.974;23.708;2023-07-20T08:29:04;3.47;;;2.90;;
80249;SDS011;69561;37.974;23.708;2023-07-20T08:31:29;3.60;;;3.00;;
80249;SDS011;69561;37.974;23.708;2023-07-20T08:33:55;5.72;;;2.58;;
80249;SDS011;69561;37.974;23.708;2023-07-20T08:36:22;4.38;;;2.88;;
80249;SDS011;69561;37.974;23.708;2023-07-20T08:38:48;5.78;;;2.70;;
80249;SDS011;69561;37.974;23.708;2023-07-20T08:41:16;4.45;;;3.10;;
80249;SDS011;69561;37.974;23.708;2023-07-20T08:43:46;3.47;;;2.75;;
80249;SDS011;69561;37.974;23.708;2023-07-20T08:46:19;8.20;;;3.08;;
80249;SDS011;69561;37.974;23.708;2023-07-20T08:48:46;4.85;;;2.72;;
80249;SDS011;69561;37.974;23.708;2023-07-20T08:51:12;6.80;;;3.05;;
80249;SDS011;69561;37.974;23.708;2023-07-20T08:53:38;3.65;;;2.90;;
80249;SDS011;69561;37.974;23.708;2023-07-20T08:56:04;4.63;;;2.90;;
80249;SDS011;69561;37.974;23.708;2023-07-20T08:58:31;4.97;;;3.17;;
80249;SDS011;69561;37.974;23.708;2023-07-20T09:01:00;8.68;;;2.97;;
80249;SDS011;69561;37.974;23.708;2023-07-20T09:03:27;7.35;;;3.30;;
80249;SDS011;69561;37.974;23.708;2023-07-20T09:05:53;3.15;;;2.80;;
80249;SDS011;69561;37.974;23.708;2023-07-20T09:08:19;4.72;;;2.60;;
80249;SDS011;69561;37.974;23.708;2023-07-20T09:10:45;7.07;;;2.63;;
80249;SDS011;69561;37.974;23.708;2023-07-20T09:13:14;5.20;;;2.80;;
80249;SDS011;69561;37.974;23.708;2023-07-20T09:15:45;6.47;;;2.80;;
80249;SDS011;69561;37.974;23.708;2023-07-20T09:18:12;3.13;;;2.50;;
80249;SDS011;69561;37.974;23.708;2023-07-20T09:20:49;3.92;;;2.70;;
80249;SDS011;69561;37.974;23.708;2023-07-20T09:23:14;4.00;;;2.75;;
80249;SDS011;69561;37.974;23.708;2023-07-20T09:25:40;4.07;;;2.63;;
80249;SDS011;69561;37.974;23.708;2023-07-20T09:28:06;6.53;;;2.97;;
80249;SDS011;69561;37.974;23.708;2023-07-20T09:30:32;4.10;;;2.88;;
80249;SDS011;69561;37.974;23.708;2023-07-20T09:32:58;4.70;;;2.78;;
80249;SDS011;69561;37.974;23.708;2023-07-20T09:35:23;4.85;;;3.17;;
80249;SDS011;69561;37.974;23.708;2023-07-20T09:37:58;5.32;;;3.10;;
80249;SDS011;69561;37.974;23.708;2023-07-20T09:40:25;4.75;;;2.80;;
80249;SDS011;69561;37.974;23.708;2023-07-20T09:42:53;3.35;;;2.80;;
80249;SDS011;69561;37.974;23.708;2023-07-20T09:45:41;5.72;;;3.30;;
80249;SDS011;69561;37.974;23.708;2023-07-20T09:48:07;4.40;;;2.90;;
80249;SDS011;69561;37.974;23.708;2023-07-20T09:50:39;5.97;;;2.58;;
80249;SDS011;69561;37.974;23.708;2023-07-20T09:53:13;3.47;;;3.08;;
80249;SDS011;69561;37.974;23.708;2023-07-20T09:55:40;3.42;;;2.50;;
80249;SDS011;69561;37.974;23.708;2023-07-20T09:58:09;5.20;;;2.63;;
80249;SDS011;69561;37.974;23.708;2023-07-20T10:00:39;3.40;;;2.42;;
80249;SDS011;69561;37.974;23.708;2023-07-20T10:03:08;5.63;;;2.67;;
80249;SDS011;69561;37.974;23.708;2023-07-20T10:05:39;5.45;;;2.60;;
80249;SDS011;69561;37.974;23.708;2023-07-20T10:08:09;3.63;;;2.50;;
80249;SDS011;69561;37.974;23.708;2023-07-20T10:10:38;4.55;;;2.50;;
80249;SDS011;69561;37.974;23.708;2023-07-20T10:13:05;3.60;;;2.50;;
80249;SDS011;69561;37.974;23.708;2023-07-20T10:15:43;2.70;;;2.50;;
80249;SDS011;69561;37.974;23.708;2023-07-20T10:18:30;6.22;;;2.50;;
80249;SDS011;69561;37.974;23.708;2023-07-20T10:21:22;3.00;;;2.70;;
80249;SDS011;69561;37.974;23.708;2023-07-20T10:23:48;3.97;;;2.72;;
80249;SDS011;69561;37.974;23.708;2023-07-20T10:26:15;3.22;;;2.90;;
80249;SDS011;69561;37.974;23.708;2023-07-20T10:28:40;3.08;;;2.78;;
80249;SDS011;69561;37.974;23.708;2023-07-20T10:31:07;4.20;;;2.55;;
80249;SDS011;69561;37.974;23.708;2023-07-20T10:33:34;4.28;;;2.80;;
80249;SDS011;69561;37.974;23.708;2023-07-20T10:36:02;4.03;;;2.80;;
80249;SDS011;69561;37.974;23.708;2023-07-20T10:43:59;3.17;;;2.90;;
80249;SDS011;69561;37.974;23.708;2023-07-20T10:49:04;4.88;;;2.63;;
80249;SDS011;69561;37.974;23.708;2023-07-20T10:51:44;6.00;;;3.00;;
80249;SDS011;69561;37.974;23.708;2023-07-20T10:56:40;3.53;;;2.80;;
80249;SDS011;69561;37.974;23.708;2023-07-20T10:59:17;3.15;;;2.80;;
80249;SDS011;69561;37.974;23.708;2023-07-20T11:02:05;3.33;;;2.80;;
80249;SDS011;69561;37.974;23.708;2023-07-20T11:04:45;3.17;;;2.85;;
80249;SDS011;69561;37.974;23.708;2023-07-20T11:07:15;3.83;;;2.53;;
80249;SDS011;69561;37.974;23.708;2023-07-20T11:09:42;3.72;;;2.55;;
80249;SDS011;69561;37.974;23.708;2023-07-20T11:12:14;5.65;;;2.70;;
80249;SDS011;69561;37.974;23.708;2023-07-20T11:14:41;2.80;;;2.60;;
80249;SDS011;69561;37.974;23.708;2023-07-20T11:17:28;3.20;;;2.90;;
80249;SDS011;69561;37.974;23.708;2023-07-20T11:19:55;3.28;;;2.97;;
80249;SDS011;69561;37.974;23.708;2023-07-20T11:22:22;3.33;;;3.03;;
80249;SDS011;69561;37.974;23.708;2023-07-20T11:24:48;6.57;;;2.97;;
80249;SDS011;69561;37.974;23.708;2023-07-20T11:27:14;5.65;;;3.30;;
80249;SDS011;69561;37.974;23.708;2023-07-20T11:29:40;5.88;;;3.00;;
80249;SDS011;69561;37.974;23.708;2023-07-20T11:32:06;5.75;;;3.40;;
80249;SDS011;69561;37.974;23.708;2023-07-20T11:34:33;6.65;;;3.05;;
80249;SDS011;69561;37.974;23.708;2023-07-20T11:36:59;9.25;;;3.00;;
80249;SDS011;69561;37.974;23.708;2023-07-20T11:39:26;15.82;;;3.40;;
80249;SDS011;69561;37.974;23.708;2023-07-20T11:41:52;6.60;;;3.10;;
80249;SDS011;69561;37.974;23.708;2023-07-20T11:44:23;4.53;;;2.92;;
80249;SDS011;69561;37.974;23.708;2023-07-20T11:47:07;5.30;;;2.97;;
80249;SDS011;69561;37.974;23.708;2023-07-20T11:49:38;3.67;;;3.05;;
80249;SDS011;69561;37.974;23.708;2023-07-20T11:52:16;3.17;;;2.88;;
80249;SDS011;69561;37.974;23.708;2023-07-20T11:54:42;3.05;;;2.72;;
80249;SDS011;69561;37.974;23.708;2023-07-20T11:57:18;3.63;;;3.28;;
80249;SDS011;69561;37.974;23.708;2023-07-20T11:59:54;5.78;;;3.00;;
80249;SDS011;69561;37.974;23.708;2023-07-20T12:02:27;3.33;;;3.03;;
80249;SDS011;69561;37.974;23.708;2023-07-20T12:04:56;3.25;;;2.95;;
80249;SDS011;69561;37.974;23.708;2023-07-20T12:07:25;3.33;;;3.03;;
80249;SDS011;69561;37.974;23.708;2023-07-20T12:12:38;3.40;;;3.10;;
80249;SDS011;69561;37.974;23.708;2023-07-20T12:15:22;4.63;;;3.30;;
80249;SDS011;69561;37.974;23.708;2023-07-20T12:17:50;5.93;;;3.10;;
80249;SDS011;69561;37.974;23.708;2023-07-20T12:22:50;3.90;;;3.30;;
80249;SDS011;69561;37.974;23.708;2023-07-20T12:25:16;3.22;;;2.80;;
80249;SDS011;69561;37.974;23.708;2023-07-20T12:27:45;3.53;;;3.08;;
80249;SDS011;69561;37.974;23.708;2023-07-20T12:30:12;4.82;;;2.90;;
80249;SDS011;69561;37.974;23.708;2023-07-20T12:32:42;3.67;;;3.38;;
80249;SDS011;69561;37.974;23.708;2023-07-20T12:35:08;3.10;;;2.80;;
80249;SDS011;69561;37.974;23.708;2023-07-20T12:37:33;3.45;;;3.13;;
80249;SDS011;69561;37.974;23.708;2023-07-20T12:39:59;3.25;;;2.95;;
80249;SDS011;69561;37.974;23.708;2023-07-20T12:42:27;3.50;;;3.20;;
80249;SDS011;69561;37.974;23.708;2023-07-20T12:44:53;4.30;;;2.83;;
80249;SDS011;69561;37.974;23.708;2023-07-20T12:47:19;3.20;;;2.90;;
80249;SDS011;69561;37.974;23.708;2023-07-20T12:49:44;4.20;;;3.40;;
80249;SDS011;69561;37.974;23.708;2023-07-20T12:52:11;4.03;;;3.40;;
80249;SDS011;69561;37.974;23.708;2023-07-20T12:54:37;6.68;;;3.40;;
80249;SDS011;69561;37.974;23.708;2023-07-20T12:57:03;4.15;;;3.75;;
80249;SDS011;69561;37.974;23.708;2023-07-20T12:59:29;4.30;;;3.90;;
80249;SDS011;69561;37.974;23.708;2023-07-20T13:01:54;4.15;;;3.30;;
80249;SDS011;69561;37.974;23.708;2023-07-20T13:04:20;3.80;;;3.50;;
80249;SDS011;69561;37.974;23.708;2023-07-20T13:06:46;5.05;;;3.30;;
80249;SDS011;69561;37.974;23.708;2023-07-20T13:09:11;3.40;;;3.10;;
80249;SDS011;69561;37.974;23.708;2023-07-20T13:11:37;3.35;;;3.00;;
80249;SDS011;69561;37.974;23.708;2023-07-20T13:14:10;3.10;;;2.90;;
80249;SDS011;69561;37.974;23.708;2023-07-20T13:16:38;3.63;;;2.78;;
80249;SDS011;69561;37.974;23.708;2023-07-20T13:19:03;2.78;;;2.58;;
80249;SDS011;69561;37.974;23.708;2023-07-20T13:21:29;2.83;;;2.63;;
80249;SDS011;69561;37.974;23.708;2023-07-20T13:23:55;3.90;;;2.63;;
80249;SDS011;69561;37.974;23.708;2023-07-20T13:26:20;2.70;;;2.30;;
80249;SDS011;69561;37.974;23.708;2023-07-20T13:28:46;2.80;;;2.60;;
80249;SDS011;69561;37.974;23.708;2023-07-20T13:31:12;2.80;;;2.60;;
80249;SDS011;69561;37.974;23.708;2023-07-20T13:33:37;2.55;;;2.20;;
80249;SDS011;69561;37.974;23.708;2023-07-20T13:36:03;2.60;;;2.40;;
80249;SDS011;69561;37.974;23.708;2023-07-20T13:38:31;2.58;;;2.30;;
80249;SDS011;69561;37.974;23.708;2023-07-20T13:40:56;2.30;;;2.13;;
80249;SDS011;69561;37.974;23.708;2023-07-20T13:43:22;2.50;;;2.30;;
80249;SDS011;69561;37.974;23.708;2023-07-20T13:45:48;3.85;;;2.20;;
80249;SDS011;69561;37.974;23.708;2023-07-20T13:48:14;2.85;;;2.55;;
80249;SDS011;69561;37.974;23.708;2023-07-20T13:50:40;2.70;;;2.50;;
80249;SDS011;69561;37.974;23.708;2023-07-20T13:53:05;2.50;;;2.30;;
80249;SDS011;69561;37.974;23.708;2023-07-20T13:55:31;4.85;;;2.28;;
80249;SDS011;69561;37.974;23.708;2023-07-20T13:57:59;2.25;;;2.05;;
80249;SDS011;69561;37.974;23.708;2023-07-20T14:00:35;2.40;;;2.20;;
80249;SDS011;69561;37.974;23.708;2023-07-20T14:03:00;2.35;;;2.15;;
80249;SDS011;69561;37.974;23.708;2023-07-20T14:05:26;3.08;;;1.92;;
80249;SDS011;69561;37.974;23.708;2023-07-20T14:07:53;2.47;;;1.90;;
80249;SDS011;69561;37.974;23.708;2023-07-20T14:10:19;2.25;;;2.05;;
80249;SDS011;69561;37.974;23.708;2023-07-20T14:12:45;2.15;;;1.95;;
80249;SDS011;69561;37.974;23.708;2023-07-20T14:15:11;2.08;;;1.88;;
80249;SDS011;69561;37.974;23.708;2023-07-20T14:17:36;3.00;;;2.00;;
80249;SDS011;69561;37.974;23.708;2023-07-20T14:20:03;1.98;;;1.73;;
80249;SDS011;69561;37.974;23.708;2023-07-20T14:22:33;1.90;;;1.80;;
80249;SDS011;69561;37.974;23.708;2023-07-20T14:24:58;2.33;;;2.10;;
80249;SDS011;69561;37.974;23.708;2023-07-20T14:27:24;1.73;;;1.63;;
80249;SDS011;69561;37.974;23.708;2023-07-20T14:29:50;2.50;;;1.80;;
80249;SDS011;69561;37.974;23.708;2023-07-20T14:32:15;1.67;;;1.58;;
80249;SDS011;69561;37.974;23.708;2023-07-20T14:34:41;1.85;;;1.65;;
80249;SDS011;69561;37.974;23.708;2023-07-20T14:37:07;2.22;;;1.85;;
80249;SDS011;69561;37.974;23.708;2023-07-20T14:39:33;1.90;;;1.80;;
80249;SDS011;69561;37.974;23.708;2023-07-20T14:41:58;1.95;;;1.85;;
80249;SDS011;69561;37.974;23.708;2023-07-20T14:44:24;1.92;;;1.75;;
80249;SDS011;69561;37.974;23.708;2023-07-20T14:46:50;2.65;;;1.65;;
80249;SDS011;69561;37.974;23.708;2023-07-20T14:49:16;2.13;;;1.95;;
80249;SDS011;69561;37.974;23.708;2023-07-20T14:51:45;2.70;;;1.88;;
80249;SDS011;69561;37.974;23.708;2023-07-20T14:54:12;1.70;;;1.60;;
80249;SDS011;69561;37.974;23.708;2023-07-20T14:56:38;1.90;;;1.75;;
80249;SDS011;69561;37.974;23.708;2023-07-20T14:59:05;2.10;;;1.90;;
80249;SDS011;69561;37.974;23.708;2023-07-20T15:01:31;2.10;;;1.90;;